Tiempo atmosférico en la estación meteorológica de Álora, Málaga (181 m.)



Fecha
DESCASC
Temp. máxima en grados centígrados (hora)
DESCASC
Temp. mínima en grados centígrados (hora)
DESCASC
Temp. media en grados centígrados
DESCASC
Racha de viento máxima en m/sg (hora)
DESCASC
Velocidad máxima media en intervalos de 10 minutos(hora)
DESCASC
Precipitaciones diarias en mm
DESCASC
Precipitaciones de 00:00 a 06:00 en mm
DESCASC
Precipitaciones de 06:00 a 12:00 en mm
DESCASC
Precipitaciones de 12:00 a 18:00 en mm
DESCASC
Precipitaciones de 18:00 a 24:00 en mm
DESCASC
05-04-2020 18.6 (15:30) 11.4 (08:30) 15 10 (15:20) 7.22 (14:40) 0 0 0 0 0
04-04-2020 16.7 (12:00) 10.3 (07:00) 13.5 12.5 (13:40) 8.33 (13:50) 0 0 0 0 0
03-04-2020 18.9 (15:00) 9.7 (08:50) 14.3 10.56 (17:20) 6.94 (17:20) 0 0 0 0 0
02-04-2020 16.2 (18:10) 7.1 (00:00) 11.7 12.5 (07:30) 7.5 (07:20) 8.2 0 7.8 0.4 0
01-04-2020 18.2 (19:40) 10.7 (00:00) 14.5 10.28 (20:50) 5 (20:50) 5 0.2 0.2 4.6 0
31-03-2020 17.2 (14:40) 11 (00:00) 14.1 11.67 (16:10) 7.22 (14:20) 26.4 14 7.2 2.2 3
30-03-2020 19.4 (15:00) 9.7 (00:00) 14.5 8.33 (15:10) 4.72 (16:00) 0 0 0 0 0
29-03-2020 21.1 (16:10) 9.1 (00:00) 15.1 7.78 (17:20) 4.72 (17:00) 0 0 0 0 0
28-03-2020 14.9 (17:10) 10.7 (00:00) 12.8 9.17 (13:00) 5.83 (13:00) 0 0 0 0 0
27-03-2020 16.4 (13:40) 10.2 (00:00) 13.3 12.22 (14:10) 7.22 (10:20) 0 0 0 0 0
26-03-2020 22.6 (14:20) 7.7 (00:00) 15.2 12.78 (15:30) 7.78 (16:40) 0 0 0 0 0
25-03-2020 13.3 (00:00) 10.4 (00:00) 11.8 7.5 (07:30) 4.44 (07:40) 20 8.2 10 1.4 0.4
24-03-2020 17 (14:40) 9.9 (00:00) 13.4 8.89 (05:00) 4.17 (04:10) 7.2 1 3.6 2.6 0
23-03-2020 15 (13:10) 7.5 (00:00) 11.3 7.22 (12:50) 4.44 (12:40) 10 0 0.2 6 3.8
22-03-2020 16.7 (14:10) 9 (05:10) 12.9 7.78 (14:20) 5.28 (14:40) 10 8.6 0.2 0.8 0.4
21-03-2020 15.3 (13:40) 9.3 (00:00) 12.3 15.83 (02:40) 9.17 (02:00) 22.2 20.2 0 2 0
20-03-2020 19 (16:00) 12.2 (00:00) 15.6 12.22 (23:59) 7.78 (23:20) 0.2 0 0 0 0.2
19-03-2020 16.9 (16:50) 13.6 (00:00) 15.3 10.83 (12:20) 7.78 (12:20) 0 0 0 0 0
18-03-2020 19.3 (14:10) 10.6 (00:00) 14.9 13.89 (13:50) 8.61 (11:50) 0 0 0 0 0
17-03-2020 16.1 (15:00) 8.1 (00:00) 12.1 13.33 (15:10) 8.33 (15:10) 1 0 0.2 0.8 0
16-03-2020 17.8 (15:00) 10.4 (00:00) 14.1 14.17 (10:20) 8.06 (10:30) 0 0 0 0 0
15-03-2020 19.5 (16:20) 11.7 (00:00) 15.6 6.94 (15:10) 4.44 (12:00) 0 0 0 0 0
14-03-2020 22.3 (14:40) 11.2 (00:00) 16.7 8.33 (14:50) 5 (14:40) 0 0 0 0 0
13-03-2020 26.9 (13:40) 13.6 (23:59) 20.3 7.5 (14:40) 5.28 (16:20) 0 0 0 0 0
12-03-2020 28.2 (15:40) 11.8 (00:00) 20 6.94 (13:00) 4.72 (11:50) 0 0 0 0 0
11-03-2020 28.3 (15:40) 9.2 (00:00) 18.7 8.33 (15:20) 5.83 (13:30) 0 0 0 0 0
10-03-2020 23.4 (12:00) 12.1 (00:00) 17.8 13.61 (03:50) 7.5 (14:30) 0 0 0 0 0

Gráficas

Temp. máximas Temp. mínimas Temp. medias Precipitaciones Rachas de viento máximas Velocidades máximas media en intervalos de 10 minutos

Datos horarios

Fecha y hora oficial Temperatura (ºC) Velocidad del viento (km/h) Dirección del viento Racha (km/h) Dirección de racha Precipitación (mm) Presión (hPa) Tendencia (hPa) Humedad (%)
2020-04-08 23:00:00 14.5 10 Sudeste 16 Sur 0 -- -- 84
2020-04-08 22:00:00 14.5 7 Sur 14 Sudeste 0 -- -- 84
2020-04-08 21:00:00 14.9 9 Este 20 Este 0 -- -- 82
2020-04-08 20:00:00 15.6 13 Este 19 Este 0 -- -- 78
2020-04-08 19:00:00 16.5 14 Este 21 Este 0 -- -- 74
2020-04-08 18:00:00 17.1 14 Este 23 Sur 0 -- -- 71
2020-04-08 17:00:00 17.2 16 Sudeste 26 Sudeste 0 -- -- 71
2020-04-08 16:00:00 16.8 17 Sudeste 25 Sudeste 0 -- -- 75
2020-04-08 15:00:00 16.5 17 Este 26 Sudeste 0 -- -- 75
2020-04-08 14:00:00 15.6 21 Sudeste 27 Sudeste 0 -- -- 80
2020-04-08 13:00:00 16.2 15 Sur 23 Sur 0 -- -- 80
2020-04-08 12:00:00 15 18 Sur 23 Sur 0 -- -- 86
2020-04-08 11:00:00 14.7 15 Sur 21 Sur 0 -- -- 88
2020-04-08 10:00:00 13.8 7 Sudeste 10 Sudeste 0 -- -- 93
2020-04-08 09:00:00 13.2 4 Sudeste 8 Sudeste 0 -- -- 93
2020-04-08 08:00:00 13.3 6 Sudeste 11 Sudeste 0 -- -- 92
2020-04-08 07:00:00 13.2 4 Sudeste 7 Sudeste 0 -- -- 93
2020-04-08 06:00:00 13 5 Sudeste 8 Sudeste 0 -- -- 93
2020-04-08 05:00:00 13 5 Sudeste 9 Sudeste 0 -- -- 93
2020-04-08 04:00:00 13.1 6 Sudeste 11 Este 0 -- -- 92
2020-04-08 03:00:00 13.1 6 Sudeste 13 Sudeste 0 -- -- 91
2020-04-08 02:00:00 13.9 4 Sudeste 8 Sudeste 0 -- -- 88
2020-04-08 01:00:00 14 4 Sudeste 11 Sudeste 0 -- -- 87
2020-04-08 00:00:00 14.1 7 Este 11 Sudeste 0 -- -- 85
2020-04-07 23:00:00 15 3 Sur 10 Sudeste 0 -- -- 83
2020-04-07 22:00:00 15.3 6 Sur 10 Este 0 -- -- 83
2020-04-07 21:00:00 15.7 5 Sudeste 13 Este 0 -- -- 83
2020-04-07 20:00:00 16.1 11 Este 15 Este 0 -- -- 80
2020-04-07 19:00:00 16.8 8 Este 14 Este 0 -- -- 76
2020-04-07 18:00:00 16.2 9 Sudeste 17 Sur 0 -- -- 80
2020-04-07 17:00:00 16.7 9 Sur 16 Sur 0 -- -- 78
2020-04-07 16:00:00 16 10 Sur 16 Sudeste 0 -- -- 80
2020-04-07 15:00:00 15.6 12 Sudeste 23 Sur 0 -- -- 79
2020-04-07 14:00:00 16.2 15 Sur 22 Sur 0 -- -- 77
2020-04-07 13:00:00 15.8 13 Sur 22 Sudeste 0 -- -- 79
2020-04-07 12:00:00 14.9 12 Sudeste 19 Sudeste 0 -- -- 83
2020-04-07 11:00:00 15.1 14 Sur 19 Sur 0 -- -- 83
2020-04-07 10:00:00 14.7 10 Sur 13 Sur 0 -- -- 85
2020-04-07 09:00:00 14 4 Sudeste 12 Sur 0 -- -- 88
2020-04-07 08:00:00 14 4 Sudeste 9 Sudeste 0 -- -- 88
2020-04-07 07:00:00 14 5 Sudeste 10 Sudeste 0 -- -- 90
2020-04-07 06:00:00 14.1 5 Sudeste 8 Sudeste 0 -- -- 89
2020-04-07 05:00:00 14.2 5 Sudeste 7 Sur 0 -- -- 87
2020-04-07 04:00:00 14.3 3 Sudeste 6 Sur 0 -- -- 86
2020-04-07 03:00:00 14.3 5 Sudeste 13 Sur 0 -- -- 85
2020-04-07 02:00:00 14.4 9 Sur 13 Sur 0 -- -- 86
2020-04-07 01:00:00 14.5 4 Sur 13 Sur 0 -- -- 83
2020-04-07 00:00:00 14.6 6 Sur 10 Sur 0 -- -- 84
2020-04-06 23:00:00 14.7 7 Sur 16 Sur 0 -- -- 84
2020-04-06 22:00:00 15.2 12 Sur 16 Sur 0 -- -- 83
2020-04-06 21:00:00 16 8 Sudeste 14 Sur 0 -- -- 80
2020-04-06 20:00:00 18 12 Sur 19 Sur 0 -- -- 72
2020-04-06 19:00:00 19.2 12 Sur 18 Sur 0 -- -- 68
2020-04-06 18:00:00 20.1 9 Sudoeste 17 Sur 0 -- -- 65
2020-04-06 17:00:00 18.7 8 Sur 18 Sur 0 -- -- 68
2020-04-06 16:00:00 17.8 12 Sur 19 Sur 0 -- -- 71
2020-04-06 15:00:00 17.4 12 Sudeste 19 Sudeste 0 -- -- 70
2020-04-06 14:00:00 16.8 12 Sudeste 18 Sudeste 0 -- -- 74
2020-04-06 13:00:00 16.6 12 Sudeste 21 Sur 0 -- -- 71
2020-04-06 12:00:00 16.2 12 Sur 18 Sur 0 -- -- 79
2020-04-06 11:00:00 13.6 2 Sur 4 Sur 0 -- -- 94
2020-04-06 10:00:00 11.9 0 Calma 3 Este 0 -- -- 96
2020-04-06 09:00:00 11 0 Calma 3 Nordeste 0 -- -- 95
2020-04-06 08:00:00 10.2 2 Noroeste 4 Noroeste 0 -- -- 95
2020-04-06 07:00:00 9.9 2 Noroeste 6 Sudoeste 0 -- -- 94
2020-04-06 06:00:00 10.3 4 Nordeste 5 Nordeste 0 -- -- 93
2020-04-06 05:00:00 10.6 0 Calma 2 Sur 0 -- -- 93
2020-04-06 04:00:00 11.2 0 Calma 4 Norte 0 -- -- 93
2020-04-06 03:00:00 11.8 2 Nordeste 5 Este 0 -- -- 92
2020-04-06 02:00:00 12 3 Este 5 Este 0 -- -- 90
2020-04-06 01:00:00 11.9 0 Calma 3 Sur 0 -- -- 87
2020-04-06 00:00:00 12.6 0 Calma 6 Sudeste 0 -- -- 84
2020-04-05 23:00:00 13.2 3 Este 8 Este 0 -- -- 82
2020-04-05 22:00:00 13.7 6 Sudeste 10 Sudeste 0 -- -- 77
2020-04-05 21:00:00 14.5 9 Este 15 Sudeste 0 -- -- 75
2020-04-05 20:00:00 15.5 12 Sudeste 20 Este 0 -- -- 69
2020-04-05 19:00:00 16.6 13 Sudeste 26 Sudeste 0 -- -- 65
2020-04-05 18:00:00 17.8 18 Sudeste 33 Sudeste 0 -- -- 59
2020-04-05 17:00:00 17.8 21 Sudeste 35 Sudeste 0 -- -- 59
2020-04-05 16:00:00 18.1 22 Sudeste 36 Sudeste 0 -- -- 55
2020-04-05 15:00:00 17.9 24 Sudeste 35 Sudeste 0 -- -- 53
2020-04-05 14:00:00 18.4 24 Sudeste 33 Sudeste 0 -- -- 52
2020-04-05 13:00:00 17.9 18 Sudeste 32 Sudeste 0 -- -- 49
2020-04-05 12:00:00 16.8 21 Sudeste 30 Sudeste 0 -- -- 55
2020-04-05 11:00:00 15.4 12 Sudeste 18 Sur 0 -- -- 68
2020-04-05 10:00:00 13.5 6 Este 13 Este 0 -- -- 78
2020-04-05 09:00:00 11.6 8 Este 12 Este 0 -- -- 88
2020-04-05 08:00:00 11.9 7 Este 11 Este 0 -- -- 87
2020-04-05 07:00:00 12.3 5 Este 10 Sudeste 0 -- -- 84
2020-04-05 06:00:00 12.3 9 Sudeste 13 Sudeste 0 -- -- 81
2020-04-05 05:00:00 12.5 9 Sudeste 13 Sudeste 0 -- -- 81
2020-04-05 04:00:00 12.6 8 Sudeste 13 Sudeste 0 -- -- 83
2020-04-05 03:00:00 12.5 5 Sur 11 Sudeste 0 -- -- 83
2020-04-05 02:00:00 12.7 7 Sudeste 12 Sur 0 -- -- 81
2020-04-05 01:00:00 12.8 8 Sudeste 12 Este 0 -- -- 80
2020-04-05 00:00:00 12.9 7 Este 10 Sudeste 0 -- -- 80
2020-04-04 23:00:00 13.6 5 Sudeste 8 Sudeste 0 -- -- 77
2020-04-04 22:00:00 14.1 6 Sudeste 13 Sur 0 -- -- 76
2020-04-04 21:00:00 14.7 13 Sudeste 19 Sudeste 0 -- -- 75
2020-04-04 20:00:00 15.6 7 Sudeste 24 Sur 0 -- -- 66
2020-04-04 19:00:00 15.7 21 Sur 41 Sur 0 -- -- 66
2020-04-04 18:00:00 15.4 26 Sur 35 Sur 0 -- -- 74
2020-04-04 17:00:00 14.5 20 Sur 26 Sur 0 -- -- 77
2020-04-04 16:00:00 14.4 6 Sudeste 38 Sudeste 0 -- -- 79
2020-04-04 15:00:00 15.4 18 Sudeste 41 Sur 0 -- -- 66
2020-04-04 14:00:00 15.5 28 Sur 45 Sur 0 -- -- 65
2020-04-04 13:00:00 16.4 25 Sur 42 Sudeste 0 -- -- 61
2020-04-04 12:00:00 16.7 28 Sur 43 Sur 0 -- -- 64
2020-04-04 11:00:00 14.8 25 Sur 36 Sur 0 -- -- 76
2020-04-04 10:00:00 12.8 17 Sur 24 Sur 0 -- -- 82
2020-04-04 09:00:00 11.7 14 Sudeste 19 Sudeste 0 -- -- 89
2020-04-04 08:00:00 10.4 10 Sudeste 15 Sudeste 0 -- -- 89
2020-04-04 07:00:00 10.3 10 Sudeste 16 Sur 0 -- -- 91
2020-04-04 06:00:00 10.8 10 Sudeste 15 Sudeste 0 -- -- 91
2020-04-04 05:00:00 11 11 Sudeste 19 Sudeste 0 -- -- 92
2020-04-04 04:00:00 11.4 14 Sudeste 20 Sur 0 -- -- 91
2020-04-04 03:00:00 11.3 11 Sudeste 16 Sur 0 -- -- 89
2020-04-04 02:00:00 11.5 9 Sudeste 14 Sur 0 -- -- 89
2020-04-04 01:00:00 12 11 Sudeste 20 Sudeste 0 -- -- 88
2020-04-04 00:00:00 12.2 9 Sudeste 17 Sudeste 0 -- -- 85
2020-04-03 23:00:00 12.4 13 Sur 19 Sur 0 -- -- 82
2020-04-03 22:00:00 13 5 Sudeste 13 Sudoeste 0 -- -- 76
2020-04-03 21:00:00 14 9 Sudoeste 17 Sudeste 0 -- -- 71
2020-04-03 20:00:00 15.9 9 Sudeste 26 Sudeste 0 -- -- 61
2020-04-03 19:00:00 16.4 13 Sudeste 33 Este 0 -- -- 59
2020-04-03 18:00:00 16.2 21 Este 38 Este 0 -- -- 61
2020-04-03 17:00:00 17.3 14 Sudeste 32 Sur 0 -- -- 56
2020-04-03 16:00:00 17.9 24 Sudeste 33 Sudeste 0 -- -- 50
2020-04-03 15:00:00 18.9 21 Sur 29 Sudeste 0 -- -- 51
2020-04-03 14:00:00 18.3 17 Sudeste 27 Sudeste 0 -- -- 56
2020-04-03 13:00:00 17.5 15 Sudeste 25 Sudeste 0 -- -- 62
2020-04-03 12:00:00 16.8 11 Este 20 Sudeste 0 -- -- 59
2020-04-03 11:00:00 14.9 7 Sudeste 12 Sudeste 0 -- -- 68
2020-04-03 10:00:00 12.5 5 Noroeste 13 Noroeste 0 -- -- 76
2020-04-03 09:00:00 9.7 3 Noroeste 15 Noroeste 0 -- -- 82
2020-04-03 08:00:00 10.3 5 Norte 10 Noroeste 0 -- -- 77
2020-04-03 07:00:00 10.1 4 Norte 11 Noroeste 0 -- -- 78
2020-04-03 06:00:00 10.7 3 Norte 12 Norte 0 -- -- 75
2020-04-03 05:00:00 10.8 5 Noroeste 12 Nordeste 0 -- -- 75
2020-04-03 04:00:00 11.9 6 Norte 22 Noroeste 0 -- -- 70
2020-04-03 03:00:00 11.9 13 Noroeste 27 Noroeste 0 -- -- 71
2020-04-03 02:00:00 11.2 7 Norte 21 Noroeste 0 -- -- 73
2020-04-03 01:00:00 10.6 10 Noroeste 21 Noroeste 0 -- -- 77
2020-04-03 00:00:00 11.1 8 Noroeste 18 Norte 0 -- -- 77
2020-04-02 23:00:00 11.8 9 Noroeste 24 Oeste 0 -- -- 72
2020-04-02 22:00:00 12.3 11 Noroeste 33 Oeste 0 -- -- 71
2020-04-02 21:00:00 12.9 12 Noroeste 30 Oeste 0 -- -- 66
2020-04-02 20:00:00 13.9 13 Noroeste 32 Noroeste 0 -- -- 63
2020-04-02 19:00:00 15.7 11 Noroeste 39 Noroeste 0 -- -- 58
2020-04-02 18:00:00 16.1 13 Noroeste 32 Noroeste 0 -- -- 55
2020-04-02 17:00:00 15.5 11 Noroeste 32 Oeste 0 -- -- 60
2020-04-02 16:00:00 13.2 26 Noroeste 45 Oeste 0 -- -- 63
2020-04-02 15:00:00 15.3 16 Oeste 28 Oeste 0 -- -- 57
2020-04-02 14:00:00 13.6 4 Sudoeste 16 Sur 0 -- -- 67
2020-04-02 13:00:00 11.2 7 Sudeste 14 Sur 0.4 -- -- 86
2020-04-02 12:00:00 10.5 2 Oeste 6 Sudoeste 0 -- -- 79
2020-04-02 11:00:00 10.3 6 Sudoeste 9 Sudoeste 0 -- -- 85
2020-04-02 10:00:00 8.2 2 Norte 6 Oeste 0 -- -- 93
2020-04-02 09:00:00 7.2 8 Nordeste 25 Este 0.8 -- -- 91
2020-04-02 08:00:00 7.4 13 Noroeste 45 Noroeste 7 -- -- 90
2020-04-02 07:00:00 9.8 0 Calma 6 Oeste 0 -- -- 90
2020-04-02 06:00:00 9.7 4 Oeste 6 Oeste 0 -- -- 88
2020-04-02 05:00:00 9.6 0 Calma 8 Nordeste 0 -- -- 85
2020-04-02 04:00:00 9.8 7 Norte 12 Norte 0 -- -- 87
2020-04-02 03:00:00 10.1 0 Calma 5 Este 0 -- -- 85
2020-04-02 02:00:00 10.3 3 Norte 13 Oeste 0 -- -- 82
2020-04-02 01:00:00 10.7 3 Noroeste 9 Norte 0 -- -- 79
2020-04-02 00:00:00 11.8 3 Noroeste 13 Noroeste 0 -- -- 73
2020-04-01 23:00:00 12.5 9 Norte 17 Este 0 -- -- 71
2020-04-01 22:00:00 12.8 5 Oeste 31 Noroeste 0 -- -- 69
2020-04-01 21:00:00 13.9 18 Noroeste 37 Noroeste 0 -- -- 67
2020-04-01 20:00:00 17.6 6 Noroeste 24 Sudoeste 0 -- -- 52
2020-04-01 19:00:00 17.1 3 Norte 7 Norte 0 -- -- 61
2020-04-01 18:00:00 16.5 6 Sudeste 18 Este 0 -- -- 64
2020-04-01 17:00:00 16.3 10 Este 18 Este 0.2 -- -- 66
2020-04-01 16:00:00 16.2 3 Sur 13 Sudeste 0.6 -- -- 71
2020-04-01 15:00:00 15.8 9 Este 17 Este 0 -- -- 71
2020-04-01 14:00:00 13.6 5 Nordeste 28 Oeste 3.8 -- -- 85
2020-04-01 13:00:00 14.4 3 Este 14 Oeste 0 -- -- 79
2020-04-01 12:00:00 13.7 3 Sudeste 8 Oeste 0.2 -- -- 88
2020-04-01 11:00:00 13 3 Oeste 8 Sudoeste 0 -- -- 95
2020-04-01 10:00:00 11.9 2 Sudoeste 4 Sudoeste 0 -- -- 96
2020-04-01 09:00:00 10.7 0 Calma 8 Sudeste 0 -- -- 96
2020-04-01 08:00:00 11 3 Oeste 5 Oeste 0 -- -- 95
2020-04-01 07:00:00 11 4 Oeste 7 Oeste 0 -- -- 95
2020-04-01 06:00:00 11 3 Norte 5 Noroeste 0 -- -- 94
2020-04-01 05:00:00 11.5 2 Noroeste 6 Sudoeste 0 -- -- 94
2020-04-01 04:00:00 11.8 4 Norte 10 Noroeste 0 -- -- 94
2020-04-01 03:00:00 12.1 5 Oeste 10 Sudoeste 0 -- -- 94
2020-04-01 02:00:00 12.3 4 Nordeste 6 Este 0.2 -- -- 94
2020-04-01 01:00:00 12.6 3 Este 5 Oeste 0 -- -- 92
2020-04-01 00:00:00 13.1 0 Calma 6 Este 0.2 -- -- 90
2020-03-31 23:00:00 13.5 2 Sudeste 10 Este 0 -- -- 91
2020-03-31 22:00:00 13.7 3 Sudoeste 13 Este 0 -- -- 90
2020-03-31 21:00:00 13.7 6 Este 10 Sudeste 0 -- -- 91
2020-03-31 20:00:00 14 4 Sudeste 15 Sudeste 0 -- -- 92
2020-03-31 19:00:00 13.8 4 Sudeste 32 Sudeste 2.8 -- -- 92
2020-03-31 18:00:00 14.6 20 Sudeste 32 Sudeste 0 -- -- 85
2020-03-31 17:00:00 13.7 13 Sudeste 42 Sudeste 2.2 -- -- 90
2020-03-31 16:00:00 15 25 Sudeste 39 Este 0 -- -- 82
2020-03-31 15:00:00 16.5 25 Sudeste 39 Sur 0 -- -- 73
2020-03-31 14:00:00 15.8 22 Sudeste 35 Este 0 -- -- 78
2020-03-31 13:00:00 15.1 21 Sudeste 31 Sur 0 -- -- 86
2020-03-31 12:00:00 13.4 4 Sudoeste 6 Sudoeste 0 -- -- 92
2020-03-31 11:00:00 12.6 2 Norte 10 Oeste 0.2 -- -- 95
2020-03-31 10:00:00 11.9 4 Noroeste 10 Noroeste 0 -- -- 95
2020-03-31 09:00:00 11.6 6 Este 12 Sudeste 0.6 -- -- 94
2020-03-31 08:00:00 11.5 8 Sudoeste 22 Sudeste 4.6 -- -- 94
2020-03-31 07:00:00 11.5 8 Sudoeste 32 Sudeste 1.8 -- -- 92
2020-03-31 06:00:00 11.2 8 Sudeste 21 Sudeste 0.2 -- -- 93
2020-03-31 05:00:00 11 2 Oeste 33 Sur 4.8 -- -- 93
2020-03-31 04:00:00 12.1 14 Sur 41 Este 3.2 -- -- 92
2020-03-31 03:00:00 12.1 20 Sudeste 34 Este 4.8 -- -- 92
2020-03-31 02:00:00 13.1 21 Sudeste 31 Sudeste 1 -- -- 90
2020-03-31 01:00:00 13 5 Sudeste 9 Sur 0 -- -- 89
2020-03-31 00:00:00 13.2 2 Noroeste 6 Nordeste 0 -- -- 83
2020-03-30 23:00:00 13.6 2 Nordeste 12 Sur 0 -- -- 79
2020-03-30 22:00:00 14.3 4 Sudeste 10 Sudeste 0 -- -- 72
2020-03-30 21:00:00 15.1 3 Sur 11 Sur 0 -- -- 70
2020-03-30 20:00:00 16 4 Este 12 Este 0 -- -- 68
2020-03-30 19:00:00 16.4 5 Este 12 Este 0 -- -- 62
2020-03-30 18:00:00 16.6 9 Este 19 Este 0 -- -- 58
2020-03-30 17:00:00 17.3 12 Este 22 Sudeste 0 -- -- 59
2020-03-30 16:00:00 17.9 17 Sudeste 30 Sudeste 0 -- -- 58
2020-03-30 15:00:00 19.4 14 Sur 21 Sudeste 0 -- -- 54
2020-03-30 14:00:00 19 7 Sur 17 Sur 0 -- -- 59
2020-03-30 13:00:00 17.2 4 Sudeste 11 Noroeste 0 -- -- 64
2020-03-30 12:00:00 16.7 4 Norte 15 Noroeste 0 -- -- 71
2020-03-30 11:00:00 14.6 2 Noroeste 8 Noroeste 0 -- -- 80
2020-03-30 10:00:00 12.4 2 Sudoeste 5 Sudoeste 0 -- -- 89
2020-03-30 09:00:00 9.8 0 Calma 4 Sudoeste 0 -- -- 93
2020-03-30 08:00:00 9.7 2 Noroeste 4 Noroeste 0 -- -- 91
2020-03-30 07:00:00 10.2 2 Este 6 Nordeste 0 -- -- 90
2020-03-30 06:00:00 10.7 2 Oeste 7 Norte 0 -- -- 90
2020-03-30 05:00:00 10.9 4 Norte 7 Nordeste 0 -- -- 89
2020-03-30 04:00:00 11.2 0 Calma 6 Nordeste 0 -- -- 89
2020-03-30 03:00:00 11.5 0 Calma 6 Noroeste 0 -- -- 89
2020-03-30 02:00:00 11.5 2 Norte 6 Nordeste 0 -- -- 87
2020-03-30 01:00:00 11.8 0 Calma 3 Norte 0 -- -- 85
2020-03-30 00:00:00 12.4 3 Este 13 Sudeste 0 -- -- 84
2020-03-29 23:00:00 12.7 8 Sudeste 15 Sudeste 0 -- -- 82
2020-03-29 22:00:00 14.4 3 Sudeste 7 Sudeste 0 -- -- 76
2020-03-29 21:00:00 15.7 6 Sur 10 Sudeste 0 -- -- 68
2020-03-29 20:00:00 17.1 8 Sudeste 18 Sur 0 -- -- 61
2020-03-29 19:00:00 18.4 14 Sur 22 Sur 0 -- -- 55
2020-03-29 18:00:00 19.2 14 Sur 28 Sur 0 -- -- 52
2020-03-29 17:00:00 20.1 17 Sur 24 Sur 0 -- -- 48
2020-03-29 16:00:00 20.8 10 Sur 20 Sur 0 -- -- 43
2020-03-29 15:00:00 20.1 11 Sur 24 Sudeste 0 -- -- 47
2020-03-29 14:00:00 19.6 12 Sur 22 Sur 0 -- -- 49
2020-03-29 13:00:00 17.9 10 Sur 21 Sudeste 0 -- -- 56
2020-03-29 12:00:00 16 5 Sudoeste 9 Sudoeste 0 -- -- 57
2020-03-29 11:00:00 12.8 2 Sur 5 Nordeste 0 -- -- 82
2020-03-29 10:00:00 10.3 0 Calma 4 Oeste 0 -- -- 93
2020-03-29 09:00:00 9.1 3 Norte 5 Norte 0 -- -- 93
2020-03-29 08:00:00 9.7 0 Calma 4 Nordeste 0 -- -- 93
2020-03-29 07:00:00 10.5 2 Norte 5 Nordeste 0 -- -- 92
2020-03-29 06:00:00 10.8 0 Calma 5 Oeste 0 -- -- 92
2020-03-29 05:00:00 11.1 0 Calma 4 Oeste 0 -- -- 92
2020-03-29 03:00:00 11.1 0 Calma 2 Oeste 0 -- -- 91
2020-03-29 01:00:00 11 0 Calma 4 Nordeste 0 -- -- 90
2020-03-29 00:00:00 10.7 0 Calma 4 Nordeste 0 -- -- 89
2020-03-28 23:00:00 10.7 0 Calma 6 Noroeste 0 -- -- 87
2020-03-28 22:00:00 10.9 3 Noroeste 4 Noroeste 0 -- -- 86
2020-03-28 21:00:00 11.5 0 Calma 9 Sur 0 -- -- 83
2020-03-28 20:00:00 12.1 7 Sur 14 Sur 0 -- -- 80
2020-03-28 19:00:00 13.2 10 Sudeste 23 Sur 0 -- -- 73
2020-03-28 18:00:00 14.2 17 Sur 28 Sudeste 0 -- -- 70
2020-03-28 17:00:00 14.4 18 Sudeste 29 Sudeste 0 -- -- 68
2020-03-28 16:00:00 14.4 21 Sur 30 Sur 0 -- -- 68
2020-03-28 15:00:00 13.7 11 Sur 21 Sur 0 -- -- 73
2020-03-28 14:00:00 13.2 11 Sur 29 Sudeste 0 -- -- 75
2020-03-28 13:00:00 12.5 21 Sudeste 33 Sudeste 0 -- -- 81
2020-03-28 12:00:00 13.2 18 Este 31 Este 0 -- -- 80
2020-03-28 11:00:00 13.9 11 Sudeste 22 Este 0 -- -- 81
2020-03-28 10:00:00 12.6 4 Sudoeste 13 Sur 0 -- -- 87
2020-03-28 09:00:00 11.7 2 Sur 6 Este 0 -- -- 92
2020-03-28 08:00:00 10.8 0 Calma 7 Norte 0 -- -- 92
2020-03-28 07:00:00 10.9 5 Noroeste 8 Noroeste 0 -- -- 91
2020-03-28 06:00:00 11.3 0 Calma 4 Sudeste 0 -- -- 91
2020-03-28 05:00:00 11.3 0 Calma 5 Norte 0 -- -- 90
2020-03-28 04:00:00 11 4 Oeste 8 Sudoeste 0 -- -- 88
2020-03-28 03:00:00 11.1 3 Norte 5 Norte 0 -- -- 84
2020-03-28 02:00:00 11.8 2 Nordeste 9 Norte 0 -- -- 81
2020-03-28 01:00:00 12.5 5 Nordeste 7 Nordeste 0 -- -- 81
2020-03-28 00:00:00 12.7 3 Nordeste 5 Este 0 -- -- 81
2020-03-27 23:00:00 12.8 0 Calma 5 Sudeste 0 -- -- 81
2020-03-27 22:00:00 13 0 Calma 7 Sudeste 0 -- -- 79
2020-03-27 21:00:00 13.2 0 Calma 7 Sur 0 -- -- 78
2020-03-27 20:00:00 13.3 6 Sur 15 Sudeste 0 -- -- 77
2020-03-27 19:00:00 13.8 7 Sudeste 18 Sudeste 0 -- -- 75
2020-03-27 18:00:00 14.4 13 Sudeste 25 Este 0 -- -- 73
2020-03-27 17:00:00 14.9 16 Sudeste 28 Sudeste 0 -- -- 70
2020-03-27 16:00:00 15.3 16 Sudeste 33 Este 0 -- -- 70
2020-03-27 15:00:00 14.6 22 Sudeste 44 Sudeste 0 -- -- 70
2020-03-27 14:00:00 16 21 Sudeste 39 Sudeste 0 -- -- 67
2020-03-27 13:00:00 14.8 13 Este 31 Este 0 -- -- 74
2020-03-27 12:00:00 15 18 Este 38 Sudeste 0 -- -- 73
2020-03-27 11:00:00 14.6 20 Sudeste 41 Sudeste 0 -- -- 72
2020-03-27 10:00:00 14.7 21 Sudeste 30 Sudeste 0 -- -- 74
2020-03-27 09:00:00 13.9 17 Sudeste 25 Sudeste 0 -- -- 77
2020-03-27 08:00:00 11.9 8 Sudeste 17 Sudeste 0 -- -- 87
2020-03-27 07:00:00 11.2 4 Este 8 Nordeste 0 -- -- 86
2020-03-27 06:00:00 10.5 4 Oeste 10 Norte 0 -- -- 85
2020-03-27 05:00:00 10.9 0 Calma 11 Este 0 -- -- 80
2020-03-27 04:00:00 11.7 3 Este 12 Noroeste 0 -- -- 76
2020-03-27 03:00:00 12.9 10 Noroeste 20 Noroeste 0 -- -- 74
2020-03-27 02:00:00 13.5 6 Norte 22 Noroeste 0 -- -- 71
2020-03-27 01:00:00 13.9 10 Noroeste 27 Oeste 0 -- -- 69
2020-03-27 00:00:00 14.8 15 Noroeste 28 Noroeste 0 -- -- 65
2020-03-26 23:00:00 15.1 12 Noroeste 32 Oeste 0 -- -- 62
2020-03-26 22:00:00 15.4 11 Noroeste 23 Noroeste 0 -- -- 63
2020-03-26 21:00:00 16 10 Noroeste 19 Noroeste 0 -- -- 62
2020-03-26 20:00:00 17.1 8 Noroeste 24 Oeste 0 -- -- 58
2020-03-26 19:00:00 19.3 21 Oeste 35 Oeste 0 -- -- 50
2020-03-26 18:00:00 21.3 16 Oeste 39 Oeste 0 -- -- 46
2020-03-26 17:00:00 21.7 23 Oeste 45 Noroeste 0 -- -- 44
2020-03-26 16:00:00 22.3 15 Noroeste 46 Oeste 0 -- -- 46
2020-03-26 15:00:00 22.2 23 Oeste 41 Oeste 0 -- -- 44
2020-03-26 14:00:00 22.2 13 Noroeste 30 Oeste 0 -- -- 48
2020-03-26 13:00:00 21 12 Noroeste 32 Noroeste 0 -- -- 56
2020-03-26 12:00:00 19.4 12 Noroeste 30 Noroeste 0 -- -- 62
2020-03-26 11:00:00 17.5 11 Noroeste 27 Noroeste 0 -- -- 71
2020-03-26 10:00:00 14.6 9 Norte 29 Norte 0 -- -- 81
2020-03-26 09:00:00 10.8 6 Noroeste 20 Norte 0 -- -- 98
2020-03-26 08:00:00 8.2 0 Calma 11 Norte 0 -- -- 96
2020-03-26 07:00:00 7.8 2 Noroeste 7 Sudeste 0 -- -- 95
2020-03-26 06:00:00 7.8 3 Sur 7 Oeste 0 -- -- 94
2020-03-26 05:00:00 8.4 0 Calma 5 Oeste 0 -- -- 95
2020-03-26 04:00:00 8.1 5 Oeste 8 Oeste 0 -- -- 94
2020-03-26 03:00:00 8.5 0 Calma 3 Nordeste 0 -- -- 94
2020-03-26 02:00:00 9.2 2 Norte 4 Norte 0 -- -- 93
2020-03-26 01:00:00 9.7 0 Calma 6 Nordeste 0 -- -- 93
2020-03-26 00:00:00 10.4 2 Sur 4 Oeste 0 -- -- 91
2020-03-25 23:00:00 11.1 4 Oeste 5 Oeste 0.2 -- -- 89
2020-03-25 22:00:00 11.4 3 Sur 12 Sur 0.2 -- -- 89
2020-03-25 21:00:00 12 2 Este 5 Sur 0 -- -- 87
2020-03-25 20:00:00 12.1 0 Calma 7 Sur 0 -- -- 85
2020-03-25 19:00:00 12.4 5 Sur 6 Sur 0 -- -- 83
2020-03-25 18:00:00 12.7 5 Sur 9 Sur 0 -- -- 82
2020-03-25 17:00:00 12.1 4 Sur 6 Sur 0 -- -- 89
2020-03-25 16:00:00 11.3 0 Calma 6 Nordeste 0 -- -- 92
2020-03-25 15:00:00 11.3 0 Calma 9 Sudeste 0.2 -- -- 93
2020-03-25 14:00:00 11.3 0 Calma 5 Sudeste 1 -- -- 93
2020-03-25 13:00:00 11.2 3 Sudeste 10 Sur 0.2 -- -- 94
2020-03-25 12:00:00 11.1 3 Sur 11 Este 1.8 -- -- 95
2020-03-25 11:00:00 10.7 6 Sudeste 12 Este 1.8 -- -- 94
2020-03-25 10:00:00 10.8 5 Este 10 Este 1.2 -- -- 95
2020-03-25 09:00:00 10.7 7 Sudeste 15 Sudeste 0.6 -- -- 95
2020-03-25 08:00:00 11 12 Sudeste 27 Sur 4.2 -- -- 94
2020-03-25 07:00:00 11.9 4 Noroeste 9 Nordeste 0.4 -- -- 95
2020-03-25 06:00:00 11.9 2 Sudeste 6 Norte 4.4 -- -- 94
2020-03-25 05:00:00 12.3 0 Calma 8 Sudeste 3 -- -- 93
2020-03-25 04:00:00 12.4 5 Sudeste 13 Sudoeste 0.8 -- -- 91
2020-03-25 03:00:00 13 5 Sudoeste 9 Sudeste 0 -- -- 87
2020-03-25 02:00:00 13.1 4 Sudeste 8 Este 0 -- -- 88
2020-03-25 01:00:00 13.1 0 Calma 4 Este 0 -- -- 89
2020-03-25 00:00:00 13.3 4 Este 11 Este 0 -- -- 87
2020-03-24 23:00:00 13.3 8 Sudeste 16 Sudeste 0 -- -- 86
2020-03-24 22:00:00 13.8 9 Este 13 Sudeste 0 -- -- 85
2020-03-24 21:00:00 14.1 6 Sudeste 13 Sur 0 -- -- 87
2020-03-24 20:00:00 14.6 9 Este 13 Este 0 -- -- 85
2020-03-24 19:00:00 15.4 0 Calma 5 Nordeste 0 -- -- 86
2020-03-24 18:00:00 14.8 0 Calma 8 Sudeste 0 -- -- 87
2020-03-24 17:00:00 14.9 6 Sudeste 10 Sudeste 2.6 -- -- 84
2020-03-24 16:00:00 16.3 9 Sudeste 18 Sur 0 -- -- 70
2020-03-24 15:00:00 16.9 5 Sur 17 Oeste 0 -- -- 70
2020-03-24 14:00:00 16.3 10 Noroeste 22 Oeste 0 -- -- 70
2020-03-24 13:00:00 16 12 Noroeste 26 Oeste 0 -- -- 72
2020-03-24 12:00:00 14.5 11 Noroeste 24 Oeste 0 -- -- 81
2020-03-24 11:00:00 11.8 10 Noroeste 23 Oeste 1 -- -- 92
2020-03-24 10:00:00 11.2 8 Noroeste 21 Noroeste 1 -- -- 91
2020-03-24 09:00:00 11 9 Noroeste 23 Noroeste 0 -- -- 90
2020-03-24 08:00:00 10.6 11 Noroeste 22 Noroeste 0.4 -- -- 93
2020-03-24 07:00:00 10.5 10 Noroeste 26 Noroeste 1.2 -- -- 92
2020-03-24 06:00:00 10.7 8 Norte 24 Nordeste 0.8 -- -- 90
2020-03-24 05:00:00 11.2 14 Noroeste 32 Norte 0 -- -- 86
2020-03-24 04:00:00 10.9 13 Noroeste 28 Noroeste 0 -- -- 88
2020-03-24 03:00:00 10.4 9 Noroeste 23 Noroeste 0 -- -- 92
2020-03-24 02:00:00 10.2 9 Noroeste 22 Noroeste 0 -- -- 94
2020-03-24 01:00:00 10 6 Norte 16 Norte 0.2 -- -- 94
2020-03-24 00:00:00 10 3 Norte 8 Norte 0.2 -- -- 94
2020-03-23 23:00:00 10 2 Sur 7 Oeste 0 -- -- 94
2020-03-23 22:00:00 10.2 3 Noroeste 8 Nordeste 0 -- -- 94
2020-03-23 21:00:00 10.4 2 Noroeste 4 Noroeste 0 -- -- 94
2020-03-23 20:00:00 10.4 3 Sudoeste 8 Noroeste 1.6 -- -- 93
2020-03-23 19:00:00 10.8 2 Este 10 Sudoeste 2 -- -- 92
2020-03-23 18:00:00 11.2 5 Oeste 10 Oeste 1.4 -- -- 89
2020-03-23 17:00:00 11.7 3 Sur 6 Sur 1 -- -- 90
2020-03-23 16:00:00 11.1 3 Sudeste 12 Sur 3.4 -- -- 89
2020-03-23 15:00:00 12 8 Sudeste 19 Sur 0.2 -- -- 83
2020-03-23 14:00:00 13.7 12 Sur 21 Sur 0 -- -- 72
2020-03-23 13:00:00 14.7 14 Sudeste 26 Sudeste 0 -- -- 70
2020-03-23 12:00:00 14.3 13 Sur 19 Sudeste 0 -- -- 75
2020-03-23 11:00:00 12.9 5 Sudoeste 9 Oeste 0 -- -- 78
2020-03-23 10:00:00 10.3 0 Calma 5 Noroeste 0 -- -- 92
2020-03-23 09:00:00 8.9 4 Norte 5 Noroeste 0 -- -- 94
2020-03-23 08:00:00 7.9 3 Nordeste 4 Nordeste 0 -- -- 94
2020-03-23 07:00:00 7.7 2 Noroeste 5 Oeste 0.2 -- -- 93
2020-03-23 06:00:00 7.7 3 Norte 4 Nordeste 0 -- -- 93
2020-03-23 05:00:00 8 0 Calma 5 Noroeste 0 -- -- 94
2020-03-23 04:00:00 8 0 Calma 5 Nordeste 0 -- -- 94
2020-03-23 03:00:00 8.4 3 Norte 9 Norte 0 -- -- 94
2020-03-23 02:00:00 9 3 Norte 5 Norte 0 -- -- 93
2020-03-23 01:00:00 9.6 0 Calma 3 Sur 0 -- -- 92
2020-03-23 00:00:00 10.2 0 Calma 4 Sudoeste 0 -- -- 92
2020-03-22 23:00:00 10.6 0 Calma 7 Sudoeste 0 -- -- 91
2020-03-22 22:00:00 10.5 0 Calma 6 Este 0 -- -- 91
2020-03-22 21:00:00 10.7 0 Calma 5 Sudeste 0 -- -- 91
2020-03-22 20:00:00 10.7 3 Norte 7 Norte 0 -- -- 86
2020-03-22 19:00:00 10.8 4 Nordeste 19 Sur 0.4 -- -- 87
2020-03-22 18:00:00 13.1 10 Oeste 25 Oeste 0.8 -- -- 81
2020-03-22 17:00:00 14.1 3 Sur 15 Sudoeste 0 -- -- 77
2020-03-22 16:00:00 13.4 11 Sur 25 Sudeste 0 -- -- 78
2020-03-22 15:00:00 14.6 16 Sur 28 Sur 0 -- -- 73
2020-03-22 14:00:00 16.4 14 Sur 23 Sur 0 -- -- 63
2020-03-22 13:00:00 14.4 7 Sudeste 15 Sur 0 -- -- 65
2020-03-22 12:00:00 15 9 Sur 20 Sudeste 0 -- -- 67
2020-03-22 11:00:00 12.4 4 Este 11 Sudeste 0 -- -- 80
2020-03-22 10:00:00 10.8 4 Sudeste 9 Este 0 -- -- 96
2020-03-22 09:00:00 9.7 0 Calma 3 Sur 0 -- -- 95
2020-03-22 08:00:00 9.2 0 Calma 3 Nordeste 0.2 -- -- 94
2020-03-22 07:00:00 9.3 0 Calma 3 Nordeste 0 -- -- 94
2020-03-22 06:00:00 9.1 0 Calma 5 Norte 0 -- -- 94
2020-03-22 05:00:00 9.1 5 Oeste 11 Oeste 0.8 -- -- 94
2020-03-22 04:00:00 9.4 3 Noroeste 10 Este 4.2 -- -- 93
2020-03-22 03:00:00 10.3 4 Sudeste 9 Sudeste 3 -- -- 93
2020-03-22 02:00:00 10.4 0 Calma 5 Nordeste 0.6 -- -- 92
2020-03-22 01:00:00 10.5 0 Calma 5 Norte 0 -- -- 91
2020-03-22 00:00:00 10.4 4 Noroeste 5 Noroeste 0 -- -- 90
2020-03-21 23:00:00 10.6 2 Norte 7 Oeste 0 -- -- 87
2020-03-21 22:00:00 10.7 3 Noroeste 6 Noroeste 0 -- -- 86
2020-03-21 21:00:00 10.9 3 Nordeste 11 Sur 0 -- -- 85
2020-03-21 20:00:00 11.4 6 Sudeste 19 Sudeste 0 -- -- 81
2020-03-21 19:00:00 12.3 12 Sur 19 Este 0 -- -- 78
2020-03-21 18:00:00 12 6 Sudeste 28 Sur 0 -- -- 78
2020-03-21 17:00:00 11.5 15 Sur 40 Sur 0.2 -- -- 81
2020-03-21 16:00:00 12.6 8 Sudeste 17 Sudeste 0.2 -- -- 79
2020-03-21 15:00:00 12.5 8 Sur 36 Sudoeste 1.6 -- -- 82
2020-03-21 14:00:00 14.7 11 Sudeste 29 Sur 0 -- -- 68
2020-03-21 13:00:00 14.2 4 Sudeste 9 Sur 0 -- -- 71
2020-03-21 12:00:00 13 2 Este 7 Sudoeste 0 -- -- 79
2020-03-21 11:00:00 11.8 3 Noroeste 6 Oeste 0 -- -- 89
2020-03-21 10:00:00 10.6 0 Calma 7 Sudoeste 0 -- -- 95
2020-03-21 09:00:00 10.2 0 Calma 6 Sudoeste 0 -- -- 96
2020-03-21 08:00:00 9.4 2 Sudoeste 9 Sudeste 0 -- -- 96
2020-03-21 07:00:00 9.6 5 Sudeste 9 Sur 0 -- -- 94
2020-03-21 06:00:00 10.1 3 Norte 8 Norte 0 -- -- 94
2020-03-21 05:00:00 10.2 5 Norte 15 Nordeste 5.4 -- -- 94
2020-03-21 04:00:00 10.1 7 Nordeste 53 Sudeste 12.4 -- -- 92
2020-03-21 03:00:00 12.7 28 Sudeste 57 Este 2.2 -- -- 89
2020-03-21 02:00:00 13.4 33 Sudeste 52 Sudeste 0.2 -- -- 84
2020-03-21 01:00:00 13.7 24 Sudeste 49 Este 0 -- -- 81
2020-03-21 00:00:00 13.9 24 Este 44 Este 0 -- -- 81
2020-03-20 23:00:00 13.3 19 Sudeste 36 Sudeste 0.2 -- -- 89
2020-03-20 22:00:00 14.1 26 Sudeste 43 Sudeste 0 -- -- 79
2020-03-20 21:00:00 14.5 24 Sudeste 40 Este 0 -- -- 77
2020-03-20 20:00:00 14.5 19 Sudeste 37 Sudeste 0 -- -- 78
2020-03-20 19:00:00 15.6 21 Sudeste 33 Este 0 -- -- 69
2020-03-20 18:00:00 17.6 20 Sudeste 31 Sudeste 0 -- -- 55
2020-03-20 17:00:00 18.5 20 Sur 29 Sur 0 -- -- 52
2020-03-20 16:00:00 19 13 Sur 30 Sur 0 -- -- 55
2020-03-20 15:00:00 18.3 12 Sudeste 36 Sudeste 0 -- -- 56
2020-03-20 14:00:00 17.8 21 Sudeste 32 Este 0 -- -- 60
2020-03-20 13:00:00 15.3 19 Sudeste 32 Sur 0 -- -- 70
2020-03-20 12:00:00 15.9 19 Sudeste 32 Sur 0 -- -- 67
2020-03-20 11:00:00 15 16 Sudeste 30 Sudeste 0 -- -- 68
2020-03-20 10:00:00 14.5 19 Sudeste 27 Sudeste 0 -- -- 72
2020-03-20 09:00:00 13.6 11 Sudeste 16 Sudeste 0 -- -- 78
2020-03-20 08:00:00 13 11 Sudeste 15 Sur 0 -- -- 81
2020-03-20 07:00:00 12.6 8 Sudeste 13 Sudeste 0 -- -- 80
2020-03-20 06:00:00 12.4 7 Este 10 Este 0 -- -- 78
2020-03-20 05:00:00 12.5 4 Este 10 Sudeste 0 -- -- 77
2020-03-20 04:00:00 12.7 8 Sudeste 13 Sudeste 0 -- -- 79
2020-03-20 03:00:00 13.4 10 Sudeste 30 Sur 0 -- -- 73
2020-03-20 02:00:00 14.3 21 Sur 35 Sur 0 -- -- 73
2020-03-20 01:00:00 14.3 22 Sur 29 Sur 0 -- -- 78
2020-03-20 00:00:00 14.2 12 Sur 20 Sur 0 -- -- 82
2020-03-19 23:00:00 14.2 14 Sur 19 Sur 0 -- -- 82
2020-03-19 22:00:00 14.2 10 Sudeste 24 Sur 0 -- -- 81
2020-03-19 21:00:00 13.6 10 Sudeste 15 Sur 0 -- -- 84
2020-03-19 20:00:00 14.1 12 Sur 18 Sudeste 0 -- -- 80
2020-03-19 19:00:00 14.9 13 Sur 28 Sudeste 0 -- -- 75
2020-03-19 18:00:00 15.8 23 Sudeste 35 Sudeste 0 -- -- 69
2020-03-19 17:00:00 16.8 21 Sudeste 34 Sur 0 -- -- 65
2020-03-19 16:00:00 16 21 Sudeste 31 Sur 0 -- -- 70
2020-03-19 15:00:00 16.4 22 Sudeste 34 Sudeste 0 -- -- 68
2020-03-19 14:00:00 16.3 17 Sudeste 36 Sudeste 0 -- -- 67
2020-03-19 13:00:00 15.8 26 Sudeste 39 Sudeste 0 -- -- 70
2020-03-19 12:00:00 15.9 24 Sudeste 36 Sudeste 0 -- -- 70
2020-03-19 11:00:00 15.7 19 Sudeste 29 Sur 0 -- -- 70
2020-03-19 10:00:00 15.7 16 Sur 23 Sudeste 0 -- -- 72
2020-03-19 09:00:00 14.8 7 Sudeste 13 Sudeste 0 -- -- 78
2020-03-19 08:00:00 13.8 6 Este 12 Sudeste 0 -- -- 79
2020-03-19 07:00:00 13.8 10 Sudeste 17 Sudeste 0 -- -- 79
2020-03-19 06:00:00 13.9 8 Sudeste 19 Sur 0 -- -- 79
2020-03-19 05:00:00 14 10 Sudeste 15 Sur 0 -- -- 79
2020-03-19 04:00:00 14.5 12 Sur 30 Sur 0 -- -- 76
2020-03-19 03:00:00 14.7 19 Sur 32 Sur 0 -- -- 74
2020-03-19 02:00:00 14.7 15 Sudeste 31 Sur 0 -- -- 76
2020-03-19 01:00:00 14.9 20 Sudeste 33 Sur 0 -- -- 76
2020-03-19 00:00:00 15.1 19 Sur 36 Sudeste 0 -- -- 76
2020-03-18 23:00:00 15.2 22 Sur 37 Sur 0 -- -- 76
2020-03-18 22:00:00 15.1 16 Sur 25 Sur 0 -- -- 76
2020-03-18 21:00:00 14.9 13 Sur 27 Sur 0 -- -- 75
2020-03-18 20:00:00 15.2 19 Sur 28 Sur 0 -- -- 73
2020-03-18 19:00:00 16.1 18 Sur 38 Sur 0 -- -- 68
2020-03-18 18:00:00 17.4 25 Sur 45 Sur 0 -- -- 64
2020-03-18 17:00:00 18.1 27 Sudeste 43 Sudeste 0 -- -- 62
2020-03-18 16:00:00 18.5 29 Sudeste 45 Sur 0 -- -- 59
2020-03-18 15:00:00 18.7 28 Sudeste 46 Sur 0 -- -- 59
2020-03-18 14:00:00 18.9 24 Sudeste 50 Sur 0 -- -- 61
2020-03-18 13:00:00 18.4 27 Sudeste 49 Sur 0 -- -- 63
2020-03-18 12:00:00 17.8 28 Sudeste 45 Sur 0 -- -- 67
2020-03-18 11:00:00 16.4 23 Sudeste 40 Sur 0 -- -- 73
2020-03-18 10:00:00 15.7 20 Sur 28 Sur 0 -- -- 76
2020-03-18 09:00:00 14 9 Sudeste 16 Sudeste 0 -- -- 84
2020-03-18 08:00:00 12.4 11 Este 15 Este 0 -- -- 88
2020-03-18 07:00:00 12.5 5 Este 9 Nordeste 0 -- -- 89
2020-03-18 06:00:00 12.5 4 Norte 14 Este 0 -- -- 87
2020-03-18 05:00:00 12.7 2 Este 14 Este 0 -- -- 87
2020-03-18 04:00:00 12.9 3 Norte 13 Sur 0 -- -- 87
2020-03-18 03:00:00 13.3 2 Este 17 Oeste 0 -- -- 86
2020-03-18 02:00:00 11.9 9 Oeste 18 Oeste 0 -- -- 91
2020-03-18 01:00:00 11.1 0 Calma 6 Noroeste 0 -- -- 92
2020-03-18 00:00:00 10.6 4 Oeste 10 Nordeste 0 -- -- 90
2020-03-17 23:00:00 11.1 2 Nordeste 10 Nordeste 0 -- -- 89
2020-03-17 22:00:00 11.9 3 Norte 7 Nordeste 0 -- -- 88
2020-03-17 21:00:00 12.9 0 Calma 9 Sudoeste 0 -- -- 86
2020-03-17 20:00:00 13.4 5 Sudoeste 14 Sur 0 -- -- 85
2020-03-17 19:00:00 13.6 7 Sur 12 Sudeste 0 -- -- 85
2020-03-17 18:00:00 14.3 10 Sur 30 Sudeste 0 -- -- 75
2020-03-17 17:00:00 15.1 18 Sur 33 Sudeste 0 -- -- 58
2020-03-17 16:00:00 15.6 21 Sudeste 48 Este 0 -- -- 53
2020-03-17 15:00:00 16.1 29 Sudeste 45 Sudeste 0.2 -- -- 49
2020-03-17 14:00:00 14.9 23 Sudeste 40 Sudeste 0 -- -- 49
2020-03-17 13:00:00 12.1 9 Este 39 Este 0.6 -- -- 78
2020-03-17 12:00:00 12.6 5 Sur 10 Sudoeste 0 -- -- 70
2020-03-17 11:00:00 11.9 4 Sudoeste 12 Este 0 -- -- 75
2020-03-17 10:00:00 9.5 7 Nordeste 12 Nordeste 0 -- -- 81
2020-03-17 09:00:00 8.3 7 Este 29 Sudoeste 0.2 -- -- 88
2020-03-17 08:00:00 8.6 12 Sur 28 Sur 0 -- -- 82
2020-03-17 07:00:00 9 0 Calma 6 Nordeste 0 -- -- 73
2020-03-17 06:00:00 8.9 3 Noroeste 6 Noroeste 0 -- -- 72
2020-03-17 05:00:00 8.9 0 Calma 5 Norte 0 -- -- 71
2020-03-17 04:00:00 9.3 4 Norte 10 Noroeste 0 -- -- 68
2020-03-17 03:00:00 9.4 4 Noroeste 9 Oeste 0 -- -- 67
2020-03-17 02:00:00 9.4 3 Nordeste 7 Nordeste 0 -- -- 64
2020-03-17 01:00:00 9.9 2 Norte 9 Noroeste 0 -- -- 63
2020-03-17 00:00:00 10.4 3 Norte 15 Norte 0 -- -- 61
2020-03-16 23:00:00 11 9 Noroeste 28 Oeste 0 -- -- 58
2020-03-16 22:00:00 11.8 10 Noroeste 21 Oeste 0 -- -- 52
2020-03-16 21:00:00 12.2 5 Noroeste 32 Norte 0 -- -- 50
2020-03-16 20:00:00 13.5 11 Noroeste 22 Oeste 0 -- -- 42
2020-03-16 19:00:00 14.1 9 Noroeste 28 Oeste 0 -- -- 42
2020-03-16 18:00:00 15.4 13 Noroeste 41 Oeste 0 -- -- 39
2020-03-16 17:00:00 16.3 21 Noroeste 41 Oeste 0 -- -- 38
2020-03-16 16:00:00 17 19 Noroeste 47 Noroeste 0 -- -- 35
2020-03-16 15:00:00 17.8 17 Noroeste 37 Noroeste 0 -- -- 34
2020-03-16 14:00:00 16.9 17 Noroeste 44 Oeste 0 -- -- 36
2020-03-16 13:00:00 16 16 Noroeste 37 Noroeste 0 -- -- 35
2020-03-16 12:00:00 14.4 13 Noroeste 34 Noroeste 0 -- -- 40
2020-03-16 11:00:00 13.4 20 Noroeste 51 Oeste 0 -- -- 48
2020-03-16 10:00:00 12.3 17 Noroeste 39 Noroeste 0 -- -- 53
2020-03-16 09:00:00 10.7 10 Noroeste 29 Norte 0 -- -- 58
2020-03-16 08:00:00 11.1 10 Norte 32 Norte 0 -- -- 57
2020-03-16 07:00:00 11.6 9 Norte 33 Noroeste 0 -- -- 57
2020-03-16 06:00:00 11.8 10 Norte 36 Oeste 0 -- -- 71
2020-03-16 05:00:00 12.4 3 Este 8 Sudeste 0 -- -- 89
2020-03-16 04:00:00 12.7 2 Norte 5 Oeste 0 -- -- 85
2020-03-16 03:00:00 13.5 0 Calma 4 Noroeste 0 -- -- 83
2020-03-16 02:00:00 13.8 0 Calma 4 Nordeste 0 -- -- 85
2020-03-16 01:00:00 13.8 0 Calma 8 Sudeste 0 -- -- 86
2020-03-16 00:00:00 14.1 5 Sudeste 8 Sur 0 -- -- 85
2020-03-15 23:00:00 14.3 0 Calma 4 Este 0 -- -- 84
2020-03-15 22:00:00 14.1 3 Este 9 Sudeste 0 -- -- 84
2020-03-15 21:00:00 14 3 Sudeste 13 Sur 0 -- -- 85
2020-03-15 20:00:00 14.6 12 Sur 18 Sur 0 -- -- 82
2020-03-15 19:00:00 16.7 6 Sudeste 13 Sur 0 -- -- 73
2020-03-15 18:00:00 16.7 8 Sur 17 Sudeste 0 -- -- 72
2020-03-15 17:00:00 17.8 13 Sudeste 21 Sur 0 -- -- 67
2020-03-15 16:00:00 18.2 11 Sudeste 25 Sudeste 0 -- -- 67
2020-03-15 15:00:00 17.3 14 Sudeste 24 Sudeste 0 -- -- 69
2020-03-15 14:00:00 15.4 9 Sur 16 Sudeste 0 -- -- 80
2020-03-15 13:00:00 15.2 9 Sudeste 19 Sudeste 0 -- -- 79
2020-03-15 12:00:00 15 16 Sur 21 Sur 0 -- -- 83
2020-03-15 11:00:00 15.1 13 Sur 18 Sur 0 -- -- 82
2020-03-15 10:00:00 14.1 7 Sur 10 Sudeste 0 -- -- 89
2020-03-15 09:00:00 13 5 Sudeste 12 Sudeste 0 -- -- 91
2020-03-15 08:00:00 12.9 4 Sudeste 8 Sudeste 0 -- -- 91
2020-03-15 07:00:00 13 2 Sudeste 8 Sudeste 0 -- -- 91
2020-03-15 06:00:00 13 4 Este 8 Este 0 -- -- 92
2020-03-15 05:00:00 12.8 4 Este 7 Este 0 -- -- 92
2020-03-15 04:00:00 12.3 4 Sudeste 6 Sudeste 0 -- -- 89
2020-03-15 03:00:00 12.3 2 Este 5 Este 0 -- -- 83
2020-03-15 02:00:00 11.9 0 Calma 5 Nordeste 0 -- -- 83
2020-03-15 01:00:00 12 0 Calma 6 Nordeste 0 -- -- 82
2020-03-15 00:00:00 12.8 0 Calma 7 Nordeste 0 -- -- 78
2020-03-14 23:00:00 13.4 5 Nordeste 10 Este 0 -- -- 77
2020-03-14 22:00:00 14 5 Sudeste 10 Sur 0 -- -- 77
2020-03-14 21:00:00 14.7 6 Sur 15 Sudoeste 0 -- -- 75
2020-03-14 20:00:00 15.9 12 Sudoeste 16 Sudoeste 0 -- -- 70
2020-03-14 19:00:00 18.3 10 Sur 19 Sur 0 -- -- 64
2020-03-14 18:00:00 20.4 11 Sur 21 Sur 0 -- -- 57
2020-03-14 17:00:00 20.8 13 Sudeste 27 Sudeste 0 -- -- 55
2020-03-14 16:00:00 21.4 13 Sudeste 26 Sur 0 -- -- 51
2020-03-14 15:00:00 21.8 18 Sur 30 Sur 0 -- -- 52
2020-03-14 14:00:00 21.9 17 Sur 27 Sur 0 -- -- 52
2020-03-14 13:00:00 21 15 Sur 21 Sur 0 -- -- 55
2020-03-14 12:00:00 19 8 Sur 19 Sur 0 -- -- 63
2020-03-14 11:00:00 16.5 4 Sur 11 Sur 0 -- -- 72
2020-03-14 10:00:00 14.8 3 Este 10 Sudeste 0 -- -- 77
2020-03-14 09:00:00 13.6 2 Norte 5 Sudoeste 0 -- -- 81
2020-03-14 08:00:00 12.5 2 Noroeste 6 Oeste 0 -- -- 82
2020-03-14 07:00:00 12.1 0 Calma 5 Norte 0 -- -- 82
2020-03-14 06:00:00 11.6 0 Calma 4 Noroeste 0 -- -- 82
2020-03-14 05:00:00 11.5 0 Calma 4 Noroeste 0 -- -- 82
2020-03-14 04:00:00 11.3 0 Calma 4 Sudeste 0 -- -- 80
2020-03-14 03:00:00 11.6 0 Calma 4 Sudeste 0 -- -- 80
2020-03-14 02:00:00 12.1 0 Calma 5 Nordeste 0 -- -- 76
2020-03-14 01:00:00 12.8 0 Calma 5 Nordeste 0 -- -- 76
2020-03-14 00:00:00 13.6 3 Norte 12 Este 0 -- -- 72
2020-03-13 23:00:00 14.6 8 Este 11 Sudeste 0 -- -- 71
2020-03-13 22:00:00 15.9 4 Sudeste 11 Sur 0 -- -- 67
2020-03-13 21:00:00 16.7 8 Sudoeste 21 Sur 0 -- -- 62
2020-03-13 20:00:00 17.5 15 Sur 20 Sur 0 -- -- 57
2020-03-13 19:00:00 19.8 14 Sur 19 Sur 0 -- -- 52
2020-03-13 18:00:00 22.1 14 Sur 18 Sur 0 -- -- 49
2020-03-13 17:00:00 21.7 14 Sur 24 Sur 0 -- -- 52
2020-03-13 16:00:00 22.6 17 Sur 25 Sudeste 0 -- -- 47
2020-03-13 15:00:00 26.1 16 Sur 27 Sur 0 -- -- 39
2020-03-13 14:00:00 26.4 3 Norte 14 Noroeste 0 -- -- 32
2020-03-13 13:00:00 25.2 8 Noroeste 18 Norte 0 -- -- 36
2020-03-13 12:00:00 24.1 8 Noroeste 23 Noroeste 0 -- -- 42
2020-03-13 11:00:00 22.1 10 Noroeste 23 Norte 0 -- -- 48
2020-03-13 10:00:00 18.2 13 Noroeste 26 Noroeste 0 -- -- 58
2020-03-13 09:00:00 16.4 12 Norte 23 Noroeste 0 -- -- 66
2020-03-13 08:00:00 15 13 Noroeste 22 Norte 0 -- -- 68
2020-03-13 07:00:00 14.5 4 Norte 18 Noroeste 0 -- -- 72
2020-03-13 06:00:00 15.1 9 Noroeste 19 Noroeste 0 -- -- 71
2020-03-13 05:00:00 15.8 13 Norte 22 Norte 0 -- -- 68
2020-03-13 04:00:00 16.6 12 Norte 21 Norte 0 -- -- 67
2020-03-13 03:00:00 16.3 11 Norte 17 Norte 0 -- -- 70
2020-03-13 02:00:00 15.6 0 Calma 9 Norte 0 -- -- 67
2020-03-13 01:00:00 16 2 Nordeste 6 Este 0 -- -- 61
2020-03-13 00:00:00 16.8 0 Calma 4 Este 0 -- -- 51
2020-03-12 23:00:00 17.6 0 Calma 8 Este 0 -- -- 48
2020-03-12 22:00:00 18.6 2 Noroeste 10 Sudeste 0 -- -- 44
2020-03-12 21:00:00 20.1 4 Sudeste 9 Sur 0 -- -- 42
2020-03-12 20:00:00 21.2 7 Sudeste 20 Sudoeste 0 -- -- 40
2020-03-12 19:00:00 25.3 12 Sudoeste 17 Sudoeste 0 -- -- 35
2020-03-12 18:00:00 27 9 Sur 17 Sudeste 0 -- -- 31
2020-03-12 17:00:00 26.8 10 Sudeste 22 Sur 0 -- -- 30
2020-03-12 16:00:00 27.7 13 Sudeste 25 Sur 0 -- -- 28
2020-03-12 15:00:00 27.3 15 Sur 23 Sudeste 0 -- -- 29
2020-03-12 14:00:00 27.4 13 Sudeste 25 Sur 0 -- -- 30
2020-03-12 13:00:00 26.8 16 Sur 25 Sur 0 -- -- 33
2020-03-12 12:00:00 25.1 17 Sur 24 Sur 0 -- -- 34
2020-03-12 11:00:00 20.7 4 Sudeste 8 Sudeste 0 -- -- 46
2020-03-12 10:00:00 16.1 0 Calma 3 Sudoeste 0 -- -- 58
2020-03-12 09:00:00 12.8 0 Calma 2 Noroeste 0 -- -- 67
2020-03-12 08:00:00 11.8 0 Calma 2 Noroeste 0 -- -- 64
2020-03-12 07:00:00 12.1 0 Calma 4 Oeste 0 -- -- 62
2020-03-12 06:00:00 12.3 0 Calma 6 Este 0 -- -- 61
2020-03-12 05:00:00 12.9 4 Noroeste 6 Noroeste 0 -- -- 60
2020-03-12 04:00:00 13.4 3 Nordeste 12 Este 0 -- -- 58
2020-03-12 03:00:00 13.3 0 Calma 6 Norte 0 -- -- 60
2020-03-12 02:00:00 13.9 3 Nordeste 11 Sudeste 0 -- -- 58
2020-03-12 01:00:00 14.7 6 Este 10 Sudeste 0 -- -- 56
2020-03-12 00:00:00 15.7 3 Sur 4 Sur 0 -- -- 52
2020-03-11 23:00:00 17.1 2 Oeste 6 Este 0 -- -- 49
2020-03-11 22:00:00 19 5 Este 12 Este 0 -- -- 44
2020-03-11 21:00:00 20.7 0 Calma 9 Este 0 -- -- 41
2020-03-11 20:00:00 22.3 6 Este 13 Sudeste 0 -- -- 37
2020-03-11 19:00:00 25.1 5 Sudeste 18 Sur 0 -- -- 32
2020-03-11 18:00:00 27.4 14 Sur 21 Sur 0 -- -- 29
2020-03-11 17:00:00 26.7 14 Sur 28 Sur 0 -- -- 31
2020-03-11 16:00:00 27.6 17 Sur 30 Sudeste 0 -- -- 28
2020-03-11 15:00:00 28 20 Sudeste 29 Sur 0 -- -- 28
2020-03-11 14:00:00 27.4 18 Sudeste 28 Sudoeste 0 -- -- 28
2020-03-11 13:00:00 26.6 17 Sur 26 Sur 0 -- -- 32
2020-03-11 12:00:00 24.4 14 Sur 20 Sudeste 0 -- -- 38
2020-03-11 11:00:00 20 6 Sudeste 12 Sudeste 0 -- -- 44
2020-03-11 10:00:00 14.6 3 Sur 7 Sur 0 -- -- 58
2020-03-11 09:00:00 10.5 0 Calma 3 Sudeste 0 -- -- 68
2020-03-11 08:00:00 9.3 0 Calma 3 Sudoeste 0 -- -- 67
2020-03-11 07:00:00 9.8 0 Calma 6 Noroeste 0 -- -- 63
2020-03-11 06:00:00 9.7 6 Norte 9 Noroeste 0 -- -- 64
2020-03-11 05:00:00 9.9 2 Oeste 8 Oeste 0 -- -- 64
2020-03-11 04:00:00 9.8 2 Sudoeste 5 Oeste 0 -- -- 64
2020-03-11 03:00:00 10.8 0 Calma 4 Oeste 0 -- -- 61
2020-03-11 02:00:00 11 0 Calma 6 Norte 0 -- -- 60
2020-03-11 01:00:00 11.8 0 Calma 3 Oeste 0 -- -- 58
2020-03-11 00:00:00 12.1 0 Calma 12 Nordeste 0 -- -- 57
2020-03-10 23:00:00 13.2 0 Calma 9 Nordeste 0 -- -- 54
2020-03-10 22:00:00 14.6 7 Este 12 Este 0 -- -- 49
2020-03-10 21:00:00 15.8 0 Calma 11 Sudoeste 0 -- -- 45
2020-03-10 20:00:00 16.6 8 Sudoeste 12 Sur 0 -- -- 44
2020-03-10 19:00:00 18.6 9 Sur 17 Sur 0 -- -- 41
2020-03-10 18:00:00 20.3 12 Sudeste 20 Sur 0 -- -- 38
2020-03-10 17:00:00 21.3 14 Sudeste 26 Sudeste 0 -- -- 38
2020-03-10 16:00:00 22.6 19 Sudeste 26 Sudeste 0 -- -- 37
2020-03-10 15:00:00 22.3 19 Sudeste 37 Sudeste 0 -- -- 36
2020-03-10 14:00:00 22.9 24 Sudeste 37 Sudeste 0 -- -- 33
2020-03-10 13:00:00 22.9 22 Sudeste 35 Sudeste 0 -- -- 34
2020-03-10 12:00:00 23.4 18 Sudeste 27 Sudeste 0 -- -- 33
2020-03-10 11:00:00 20.8 4 Nordeste 10 Oeste 0 -- -- 40
2020-03-10 10:00:00 17.2 5 Noroeste 18 Norte 0 -- -- 47
2020-03-10 09:00:00 15 9 Noroeste 19 Noroeste 0 -- -- 52
2020-03-10 08:00:00 14 13 Noroeste 22 Noroeste 0 -- -- 52
2020-03-10 07:00:00 15.1 11 Norte 28 Norte 0 -- -- 48
2020-03-10 06:00:00 15.6 9 Norte 29 Norte 0 -- -- 47
2020-03-10 05:00:00 15.2 13 Norte 38 Norte 0 -- -- 49
2020-03-10 04:00:00 15.7 19 Noroeste 49 Noroeste 0 -- -- 48
2020-03-10 03:00:00 15.9 13 Noroeste 26 Noroeste 0 -- -- 47
2020-03-10 02:00:00 16.1 9 Noroeste 22 Norte 0 -- -- 47
2020-03-10 01:00:00 16.9 4 Norte 10 Noroeste 0 -- -- 45
2020-03-10 00:00:00 16.7 4 Nordeste 17 Sudeste 0 -- -- 46